Veidnes — LLSD — position and weather

sailwx.info

Track history (hours):
 
Tides and Currents Weather Stations Pressure Air Temp Water Temp Dewpoint Dewpoint Depression Visibility Wind Speed Wind Dir Waves Ship Positions

Veidnes

Last reported at 2015-Apr-25 20:19 UTC. Time now 2015-May-05 12:15 UTC.
Position N 67°39' E 014°45'.
Warning: this ship's position is 9 days out of date.

Length 50 m; draft 5 m.

Type: Cargo ship. MMSI: 259237000.

Date/timePositionNaut miles runAvg speedWind from/ knotsBaromVisibWave heightAir tempDewpointWater temp
2015-Apr-25 20:19N 67°39' E 014°45'911.7
2015-Apr-25 19:33N 67°42' E 015°07'0 0.1
2015-Apr-25 15:33N 67°42' E 015°08'10 8.9
2015-Apr-25 14:26N 67°39' E 014°43'8 7.8
2015-Apr-25 13:27N 67°46' E 014°31'28 2.2
2015-Apr-25 01:06N 68°13' E 014°32'1 0.0
2015-Apr-24 07:29N 68°14' E 014°32'0 0.0
2015-Apr-23 19:27N 68°14' E 014°32'0 0.0
2015-Apr-23 11:03N 68°14' E 014°32'0 0.0
2015-Apr-23 10:11N 68°14' E 014°32'0 0.0
2015-Apr-23 09:17N 68°14' E 014°32'0 0.0
2015-Apr-23 08:17N 68°14' E 014°32'0 0.0
2015-Apr-23 06:11N 68°14' E 014°32'0 0.0
2015-Apr-22 10:31N 68°14' E 014°32'0 0.0
2015-Apr-22 09:29N 68°14' E 014°32'0 0.0
2015-Apr-21 21:33N 68°14' E 014°32'0 0.0
2015-Apr-21 14:33N 68°14' E 014°32'0 0.0
2015-Apr-21 13:31N 68°14' E 014°32'0 0.0
2015-Apr-21 12:33N 68°14' E 014°32'0 0.1
2015-Apr-21 11:30N 68°14' E 014°32'0 0.0
2015-Apr-21 10:29N 68°14' E 014°32'0 0.0
2015-Apr-21 09:32N 68°14' E 014°32'0 0.0
2015-Apr-21 08:20N 68°14' E 014°32'0 0.0
2015-Apr-21 07:27N 68°14' E 014°32'0 0.0
2015-Apr-21 06:32N 68°14' E 014°32'0 0.1
2015-Apr-21 05:33N 68°14' E 014°32'0 0.0
2015-Apr-21 04:31N 68°14' E 014°32'0 0.0
2015-Apr-21 03:18N 68°14' E 014°32'0 0.0
2015-Apr-21 02:31N 68°14' E 014°32'0 0.0
2015-Apr-21 01:25N 68°14' E 014°32'0 0.0
2015-Apr-21 00:32N 68°14' E 014°32'0 0.1
2015-Apr-20 23:32N 68°14' E 014°32'0 0.0
2015-Apr-20 17:28N 68°14' E 014°32'0 0.1
2015-Apr-20 16:31N 68°14' E 014°32'0 0.0
2015-Apr-20 15:16N 68°14' E 014°32'0 0.0
2015-Apr-20 13:05N 68°14' E 014°32'0 0.1
2015-Apr-20 12:24N 68°14' E 014°32'0 0.0
2015-Apr-20 11:03N 68°14' E 014°32'0 0.1
2015-Apr-20 10:19N 68°14' E 014°32'0 0.0
2015-Apr-20 08:23N 68°14' E 014°32'0 0.0
2015-Apr-20 00:06N 68°14' E 014°32'0 0.0
2015-Apr-19 23:31N 68°14' E 014°32'0 0.0
2015-Apr-19 22:32N 68°14' E 014°32'0 0.0
2015-Apr-19 21:33N 68°14' E 014°32'0 0.0
2015-Apr-19 20:32N 68°14' E 014°32'0 0.0
2015-Apr-19 19:33N 68°14' E 014°32'0 0.0
2015-Apr-19 18:33N 68°14' E 014°32'0 0.1
2015-Apr-19 17:31N 68°14' E 014°32'0 0.1
2015-Apr-19 16:33N 68°14' E 014°32'0 0.0
2015-Apr-18 21:13N 68°14' E 014°32'0 0.1
2015-Apr-18 20:33N 68°14' E 014°32'0 0.0
2015-Apr-18 19:29N 68°14' E 014°32'0 0.0
2015-Apr-18 18:32N 68°14' E 014°32'0 0.0
2015-Apr-18 17:30N 68°14' E 014°32'0 0.0
2015-Apr-18 14:33N 68°14' E 014°32'0 0.0
2015-Apr-18 13:32N 68°14' E 014°32'0 0.0
2015-Apr-18 12:23N 68°14' E 014°32'0 0.0
2015-Apr-18 10:33N 68°14' E 014°32'0 0.0
2015-Apr-18 09:33N 68°14' E 014°32'0 0.0
2015-Apr-18 08:29N 68°14' E 014°32'0 0.0
2015-Apr-18 07:33N 68°14' E 014°32'0 0.0
2015-Apr-18 05:20N 68°14' E 014°32'0 0.0
2015-Apr-18 03:30N 68°14' E 014°32'0 0.0
2015-Apr-18 00:32N 68°14' E 014°32'0 0.0
2015-Apr-17 12:16N 68°14' E 014°32'0 0.0
2015-Apr-17 11:33N 68°14' E 014°32'0 0.0
2015-Apr-17 10:33N 68°14' E 014°32'0 0.0
2015-Apr-17 09:32N 68°14' E 014°32'0 0.0
2015-Apr-17 08:17N 68°14' E 014°32'0 0.0
2015-Apr-17 07:16N 68°14' E 014°32'0 0.0
2015-Apr-17 05:10N 68°14' E 014°32'  
Track history (hours):
 
Tides and Currents Weather Stations Pressure Air Temp Water Temp Dewpoint Dewpoint Depression Visibility Wind Speed Wind Dir Waves Ship Positions

Veidnes

Last reported at 2015-Apr-25 20:19 UTC. Time now 2015-May-05 12:15 UTC.
Position N 67°39' E 014°45'.
Warning: this ship's position is 9 days out of date.

Length 50 m; draft 5 m.

Type: Cargo ship. MMSI: 259237000.

Date/timePositionNaut miles runAvg speedWind from/ knotsBaromVisibWave heightAir tempDewpointWater temp
2015-Apr-25 20:19N 67°39' E 014°45'911.7
2015-Apr-25 19:33N 67°42' E 015°07'0 0.1
2015-Apr-25 15:33N 67°42' E 015°08'10 8.9
2015-Apr-25 14:26N 67°39' E 014°43'8 7.8
2015-Apr-25 13:27N 67°46' E 014°31'28 2.2
2015-Apr-25 01:06N 68°13' E 014°32'1 0.0
2015-Apr-24 07:29N 68°14' E 014°32'0 0.0
2015-Apr-23 19:27N 68°14' E 014°32'0 0.0
2015-Apr-23 11:03N 68°14' E 014°32'0 0.0
2015-Apr-23 10:11N 68°14' E 014°32'0 0.0
2015-Apr-23 09:17N 68°14' E 014°32'0 0.0
2015-Apr-23 08:17N 68°14' E 014°32'0 0.0
2015-Apr-23 06:11N 68°14' E 014°32'0 0.0
2015-Apr-22 10:31N 68°14' E 014°32'0 0.0
2015-Apr-22 09:29N 68°14' E 014°32'0 0.0
2015-Apr-21 21:33N 68°14' E 014°32'0 0.0
2015-Apr-21 14:33N 68°14' E 014°32'0 0.0
2015-Apr-21 13:31N 68°14' E 014°32'0 0.0
2015-Apr-21 12:33N 68°14' E 014°32'0 0.1
2015-Apr-21 11:30N 68°14' E 014°32'0 0.0
2015-Apr-21 10:29N 68°14' E 014°32'0 0.0
2015-Apr-21 09:32N 68°14' E 014°32'0 0.0
2015-Apr-21 08:20N 68°14' E 014°32'0 0.0
2015-Apr-21 07:27N 68°14' E 014°32'0 0.0
2015-Apr-21 06:32N 68°14' E 014°32'0 0.1
2015-Apr-21 05:33N 68°14' E 014°32'0 0.0
2015-Apr-21 04:31N 68°14' E 014°32'0 0.0
2015-Apr-21 03:18N 68°14' E 014°32'0 0.0
2015-Apr-21 02:31N 68°14' E 014°32'0 0.0
2015-Apr-21 01:25N 68°14' E 014°32'0 0.0
2015-Apr-21 00:32N 68°14' E 014°32'0 0.1
2015-Apr-20 23:32N 68°14' E 014°32'0 0.0
2015-Apr-20 17:28N 68°14' E 014°32'0 0.1
2015-Apr-20 16:31N 68°14' E 014°32'0 0.0
2015-Apr-20 15:16N 68°14' E 014°32'0 0.0
2015-Apr-20 13:05N 68°14' E 014°32'0 0.1
2015-Apr-20 12:24N 68°14' E 014°32'0 0.0
2015-Apr-20 11:03N 68°14' E 014°32'0 0.1
2015-Apr-20 10:19N 68°14' E 014°32'0 0.0
2015-Apr-20 08:23N 68°14' E 014°32'0 0.0
2015-Apr-20 00:06N 68°14' E 014°32'0 0.0
2015-Apr-19 23:31N 68°14' E 014°32'0 0.0
2015-Apr-19 22:32N 68°14' E 014°32'0 0.0
2015-Apr-19 21:33N 68°14' E 014°32'0 0.0
2015-Apr-19 20:32N 68°14' E 014°32'0 0.0
2015-Apr-19 19:33N 68°14' E 014°32'0 0.0
2015-Apr-19 18:33N 68°14' E 014°32'0 0.1
2015-Apr-19 17:31N 68°14' E 014°32'0 0.1
2015-Apr-19 16:33N 68°14' E 014°32'0 0.0
2015-Apr-18 21:13N 68°14' E 014°32'0 0.1
2015-Apr-18 20:33N 68°14' E 014°32'0 0.0
2015-Apr-18 19:29N 68°14' E 014°32'0 0.0
2015-Apr-18 18:32N 68°14' E 014°32'0 0.0
2015-Apr-18 17:30N 68°14' E 014°32'0 0.0
2015-Apr-18 14:33N 68°14' E 014°32'0 0.0
2015-Apr-18 13:32N 68°14' E 014°32'0 0.0
2015-Apr-18 12:23N 68°14' E 014°32'0 0.0
2015-Apr-18 10:33N 68°14' E 014°32'0 0.0
2015-Apr-18 09:33N 68°14' E 014°32'0 0.0
2015-Apr-18 08:29N 68°14' E 014°32'0 0.0
2015-Apr-18 07:33N 68°14' E 014°32'0 0.0
2015-Apr-18 05:20N 68°14' E 014°32'0 0.0
2015-Apr-18 03:30N 68°14' E 014°32'0 0.0
2015-Apr-18 00:32N 68°14' E 014°32'0 0.0
2015-Apr-17 12:16N 68°14' E 014°32'0 0.0
2015-Apr-17 11:33N 68°14' E 014°32'0 0.0
2015-Apr-17 10:33N 68°14' E 014°32'0 0.0
2015-Apr-17 09:32N 68°14' E 014°32'0 0.0
2015-Apr-17 08:17N 68°14' E 014°32'0 0.0
2015-Apr-17 07:16N 68°14' E 014°32'0 0.0
2015-Apr-17 05:10N 68°14' E 014°32'  

Dump ship's entire track history